Ada, OH (45810)

2:10 AM EST on February 11, 2016 (GMT -0500)
Ada | | Change Station
CLOSE
Current Station
Personal Weather Station
Location: Ada, OH
Elevation: 912 ft
Nearby Weather Stations

Elev 912 ft 40.82 °N, 83.86 °W | Updated 2 seconds ago

Overcast
Overcast
14.0 °F
Feels Like 14 °F
N
0.0
Wind Variable Wind from WNW
Gusts 12.0 mph

Today
High -- | Low -- °F
--% Chance of Precip.
Yesterday
High -- | Low -- °F
Precip. -- in
Pressure 30.13 in
Visibility 10.0 miles
Clouds Overcast 5500 ft
Windchill 14 °F
Dew Point 10 °F
Humidity 82%
Rainfall 0.00 in
Snow Depth Not available.
7:34 AM 6:04 PM
Waxing Crescent, 10% visible
METAR KAOH 110653Z AUTO 29010KT 10SM OVC055 M11/M14 A3007 RMK AO2 SLP201 T11061144
Pressure 30.13 in
Visibility 10.0 miles
Clouds Overcast 5500 ft
Windchill 14 °F
Dew Point 10 °F
Humidity 82%
Rainfall 0.00 in
Snow Depth Not available.
7:34 AM 6:04 PM
Waxing Crescent, 10% visible
METAR KAOH 110653Z AUTO 29010KT 10SM OVC055 M11/M14 A3007 RMK AO2 SLP201 T11061144

10-Day Weather Forecast

Almanac

Astronomy

Feb. 11, 2016 Rise Set
Actual Time
Civil Twilight
Nautical Twilight
Astronomical Twilight
Moon
Length of Visible Light
Length of Day
Tomorrow will be .
, % of the Moon is Illuminated

Today's Extremes

State Highs State Lows

Community

WunderPhotos

Upload Photos

1,892,028 photos uploaded!

WunderBlog® & News

Nearby

Air Quality

  Air Quality AQ Index Pollutant
Not available.

Snow Depth

Station Depth Elevation

Earthquake Activity

City Distance Mag. Time & Date
Minimum magnitude displayed is 2.5.

Coastal Water Temperatures

Place Temperature

Stations

Nearby Weather Stations

Station Location Temp. Windchill Dew Point Humidity Wind Precip. Elev Updated Type
                   

Watches & Warnings

There are currently no watches in effect.